Time;durP1;ratioP1;P1;durP2;ratioP2;P2;SDS_P1;SDS_P2;PMS_P1;PMS_P2;Temp;Humidity;BMP_temperature;BMP_pressure;BME280_temperature;BME280_humidity;BME280_pressure;Samples;Min_cycle;Max_cycle;Signal;HPM_P1;HPM_P2
2023/08/23 00:00:10;;;;;;;;;;;;;;;;;;5310049;28;19907;-73
2023/08/23 00:02:41;;;;;;;;;;;;;;;;;;5308940;28;19912;-74
2023/08/23 00:05:13;;;;;;;;;;;;;;;;;;5310293;28;19915;-73
2023/08/23 00:07:44;;;;;;;;;;;;;;;;;;5309602;28;20372;-73
2023/08/23 00:10:15;;;;;;;;;;;;;;;;;;5309237;28;19966;-74
2023/08/23 00:12:46;;;;;;;;;;;;;;;;;;5309416;28;19954;-74
2023/08/23 00:15:17;;;;;;;;;;;;;;;;;;5310067;28;20358;-74
2023/08/23 00:17:48;;;;;;;;;;;;;;;;;;5308570;28;19912;-73
2023/08/23 00:20:19;;;;;;;;;;;;;;;;;;5309987;28;20371;-73
2023/08/23 00:22:51;;;;;;;;;;;;;;;;;;5308371;28;19959;-74
2023/08/23 00:25:22;;;;;;;;;;;;;;;;;;5309975;28;19959;-74
2023/08/23 00:27:53;;;;;;;;;;;;;;;;;;5309363;28;19915;-74
2023/08/23 00:30:24;;;;;;;;;;;;;;;;;;5309066;28;19916;-74
2023/08/23 00:32:55;;;;;;;;;;;;;;;;;;5309646;28;20007;-74
2023/08/23 00:35:26;;;;;;;;;;;;;;;;;;5309531;28;19908;-73
2023/08/23 00:37:57;;;;;;;;;;;;;;;;;;5308093;28;19927;-73
2023/08/23 00:40:28;;;;;;;;;;;;;;;;;;5291130;28;19964;-73
2023/08/23 00:43:00;;;;;;;;;;;;;;;;;;5309151;28;19908;-73
2023/08/23 00:45:31;;;;;;;;;;;;;;;;;;5308170;28;20480;-74
2023/08/23 00:48:02;;;;;;;;;;;;;;;;;;5309801;28;20377;-73
2023/08/23 00:50:33;;;;;;;;;;;;;;;;;;5309004;28;20013;-74
2023/08/23 00:53:06;;;;;;;;;;;;;;;;;;5308207;28;20134;-73
2023/08/23 00:55:37;;;;;;;;;;;;;;;;;;5309080;28;20311;-73
2023/08/23 00:58:08;;;;;;;;;;;;;;;;;;5308748;28;20010;-73
2023/08/23 01:00:39;;;;;;;;;;;;;;;;;;5308861;28;19939;-73
2023/08/23 01:03:10;;;;;;;;;;;;;;;;;;5309658;28;20325;-73
2023/08/23 01:05:41;;;;;;;;;;;;;;;;;;5308257;28;19919;-73
2023/08/23 01:08:12;;;;;;;;;;;;;;;;;;5307550;28;19908;-73
2023/08/23 01:10:43;;;;;;;;;;;;;;;;;;5305131;28;20368;-73
2023/08/23 01:13:15;;;;;;;;;;;;;;;;;;5305586;28;19911;-73
2023/08/23 01:15:46;;;;;;;;;;;;;;;;;;5305579;28;20487;-73
2023/08/23 01:18:17;;;;;;;;;;;;;;;;;;5306275;28;19965;-73
2023/08/23 01:20:48;;;;;;;;;;;;;;;;;;5304396;28;19969;-73
2023/08/23 01:23:19;;;;;;;;;;;;;;;;;;5305793;28;20377;-73
2023/08/23 01:25:50;;;;;;;;;;;;;;;;;;5305006;28;20362;-73
2023/08/23 01:28:22;;;;;;;;;;;;;;;;;;5305330;28;20350;-73
2023/08/23 01:30:53;;;;;;;;;;;;;;;;;;5305092;28;19916;-73
2023/08/23 01:33:24;;;;;;;;;;;;;;;;;;5304371;28;19908;-74
2023/08/23 01:35:55;;;;;;;;;;;;;;;;;;5305620;28;19909;-73
2023/08/23 01:38:26;;;;;;;;;;;;;;;;;;5305303;28;20336;-74
2023/08/23 01:40:57;;;;;;;;;;;;;;;;;;5304397;28;19909;-72
2023/08/23 01:43:28;;;;;;;;;;;;;;;;;;5305090;28;19915;-73
2023/08/23 01:45:59;;;;;;;;;;;;;;;;;;5305132;28;20337;-74
2023/08/23 01:48:30;;;;;;;;;;;;;;;;;;5304093;28;19908;-74
2023/08/23 01:51:02;;;;;;;;;;;;;;;;;;5305293;28;19976;-74
2023/08/23 01:53:33;;;;;;;;;;;;;;;;;;5304817;28;20279;-75
2023/08/23 01:56:04;;;;;;;;;;;;;;;;;;5304511;28;19927;-74
2023/08/23 01:58:35;;;;;;;;;;;;;;;;;;5304459;28;20278;-74
2023/08/23 02:01:06;;;;;;;;;;;;;;;;;;5304080;28;20000;-75
2023/08/23 02:03:37;;;;;;;;;;;;;;;;;;5304604;28;20271;-74
2023/08/23 02:06:08;;;;;;;;;;;;;;;;;;5305133;28;19908;-74
2023/08/23 02:08:39;;;;;;;;;;;;;;;;;;5303643;28;20419;-73
2023/08/23 02:11:10;;;;;;;;;;;;;;;;;;5304946;28;20013;-72
2023/08/23 02:13:41;;;;;;;;;;;;;;;;;;5304479;28;20015;-73
2023/08/23 02:16:13;;;;;;;;;;;;;;;;;;5304048;28;19905;-72
2023/08/23 02:18:44;;;;;;;;;;;;;;;;;;5304129;28;19908;-73
2023/08/23 02:21:15;;;;;;;;;;;;;;;;;;5304399;28;19965;-74
2023/08/23 02:23:46;;;;;;;;;;;;;;;;;;5303303;28;19911;-73
2023/08/23 02:26:17;;;;;;;;;;;;;;;;;;5304881;28;20263;-73
2023/08/23 02:28:48;;;;;;;;;;;;;;;;;;5304038;28;19915;-73
2023/08/23 02:31:19;;;;;;;;;;;;;;;;;;5303689;28;20350;-73
2023/08/23 02:33:50;;;;;;;;;;;;;;;;;;5303748;28;19912;-73
2023/08/23 02:36:21;;;;;;;;;;;;;;;;;;5303890;28;19918;-73
2023/08/23 02:38:53;;;;;;;;;;;;;;;;;;5303689;28;19963;-73
2023/08/23 02:41:24;;;;;;;;;;;;;;;;;;5304092;28;19999;-73
2023/08/23 02:43:55;;;;;;;;;;;;;;;;;;5303314;28;20438;-73
2023/08/23 02:46:26;;;;;;;;;;;;;;;;;;5303853;28;19908;-73
2023/08/23 02:48:57;;;;;;;;;;;;;;;;;;5303714;28;19908;-73
2023/08/23 02:51:28;;;;;;;;;;;;;;;;;;5303074;28;19924;-73
2023/08/23 02:53:59;;;;;;;;;;;;;;;;;;5303560;28;19961;-74
2023/08/23 02:56:30;;;;;;;;;;;;;;;;;;5303333;28;19908;-74
2023/08/23 02:59:01;;;;;;;;;;;;;;;;;;5303215;28;20062;-73
2023/08/23 03:01:32;;;;;;;;;;;;;;;;;;5303385;28;19912;-74
2023/08/23 03:04:03;;;;;;;;;;;;;;;;;;5303800;28;20371;-73
2023/08/23 03:06:35;;;;;;;;;;;;;;;;;;5302495;28;19908;-74
2023/08/23 03:09:06;;;;;;;;;;;;;;;;;;5303811;28;20308;-73
2023/08/23 03:11:37;;;;;;;;;;;;;;;;;;5302381;28;19924;-74
2023/08/23 03:14:08;;;;;;;;;;;;;;;;;;5303900;28;19908;-73
2023/08/23 03:16:39;;;;;;;;;;;;;;;;;;5303070;28;19915;-73
2023/08/23 03:19:10;;;;;;;;;;;;;;;;;;5302768;28;20367;-73
2023/08/23 03:21:41;;;;;;;;;;;;;;;;;;5302877;28;19916;-74
2023/08/23 03:24:12;;;;;;;;;;;;;;;;;;5303523;28;19908;-74
2023/08/23 03:26:44;;;;;;;;;;;;;;;;;;5302360;28;20361;-74
2023/08/23 03:29:15;;;;;;;;;;;;;;;;;;5303334;28;19908;-74
2023/08/23 03:31:46;;;;;;;;;;;;;;;;;;5302126;28;20386;-74
2023/08/23 03:34:17;;;;;;;;;;;;;;;;;;5302514;28;19916;-74
2023/08/23 03:36:48;;;;;;;;;;;;;;;;;;5302665;28;20247;-74
2023/08/23 03:39:19;;;;;;;;;;;;;;;;;;5303058;28;19920;-74
2023/08/23 03:41:50;;;;;;;;;;;;;;;;;;5301699;28;19912;-74
2023/08/23 03:44:21;;;;;;;;;;;;;;;;;;5303151;28;20309;-73
2023/08/23 03:46:53;;;;;;;;;;;;;;;;;;5301779;28;19912;-74
2023/08/23 03:49:24;;;;;;;;;;;;;;;;;;5303091;28;19952;-74
2023/08/23 03:51:55;;;;;;;;;;;;;;;;;;5302730;28;19925;-74
2023/08/23 03:54:26;;;;;;;;;;;;;;;;;;5301968;28;19915;-74
2023/08/23 03:56:57;;;;;;;;;;;;;;;;;;5302762;28;19908;-74
2023/08/23 03:59:28;;;;;;;;;;;;;;;;;;5302796;28;19908;-74
2023/08/23 04:02:00;;;;;;;;;;;;;;;;;;5301810;28;19977;-74
2023/08/23 04:04:31;;;;;;;;;;;;;;;;;;5302102;28;19951;-74
2023/08/23 04:07:02;;;;;;;;;;;;;;;;;;5303034;28;19959;-74
2023/08/23 04:09:33;;;;;;;;;;;;;;;;;;5301396;28;20010;-74
2023/08/23 04:12:04;;;;;;;;;;;;;;;;;;5303307;28;19916;-74
2023/08/23 04:14:38;;;;;;;;;;;;;;;;;;5301862;28;19909;-74
2023/08/23 04:17:09;;;;;;;;;;;;;;;;;;5302403;28;20401;-74
2023/08/23 04:19:40;;;;;;;;;;;;;;;;;;5302390;28;19947;-74
2023/08/23 04:22:11;;;;;;;;;;;;;;;;;;5301987;28;19908;-74
2023/08/23 04:24:42;;;;;;;;;;;;;;;;;;5302451;28;19912;-74
2023/08/23 04:27:14;;;;;;;;;;;;;;;;;;5302769;28;19908;-74
2023/08/23 04:29:45;;;;;;;;;;;;;;;;;;5301411;28;20349;-74
2023/08/23 04:32:16;;;;;;;;;;;;;;;;;;5302466;28;19960;-73
2023/08/23 04:34:47;;;;;;;;;;;;;;;;;;5301921;28;19915;-75
2023/08/23 04:37:18;;;;;;;;;;;;;;;;;;5301455;28;19908;-73
2023/08/23 04:39:49;;;;;;;;;;;;;;;;;;5301758;28;19985;-73
2023/08/23 04:42:20;;;;;;;;;;;;;;;;;;5302461;28;19955;-74
2023/08/23 04:44:51;;;;;;;;;;;;;;;;;;5305113;28;19908;-74
2023/08/23 04:47:22;;;;;;;;;;;;;;;;;;5306447;28;19912;-73
2023/08/23 04:49:54;;;;;;;;;;;;;;;;;;5305485;28;19951;-73
2023/08/23 04:52:25;;;;;;;;;;;;;;;;;;5306532;28;19923;-73
2023/08/23 04:54:56;;;;;;;;;;;;;;;;;;5305790;28;19961;-73
2023/08/23 04:57:28;;;;;;;;;;;;;;;;;;5305214;28;20271;-74
2023/08/23 04:59:59;;;;;;;;;;;;;;;;;;5305880;28;19910;-74
2023/08/23 05:02:30;;;;;;;;;;;;;;;;;;5305570;28;19995;-75
2023/08/23 05:05:03;;;;;;;;;;;;;;;;;;5305528;28;19908;-74
2023/08/23 05:07:35;;;;;;;;;;;;;;;;;;5305498;28;20377;-74
2023/08/23 05:10:06;;;;;;;;;;;;;;;;;;5305858;28;19908;-73
2023/08/23 05:12:37;;;;;;;;;;;;;;;;;;5304525;28;19908;-73
2023/08/23 05:15:08;;;;;;;;;;;;;;;;;;5306174;28;20327;-73
2023/08/23 05:17:39;;;;;;;;;;;;;;;;;;5305382;28;19908;-73
2023/08/23 05:20:11;;;;;;;;;;;;;;;;;;5305066;28;19952;-73
2023/08/23 05:22:42;;;;;;;;;;;;;;;;;;5305340;28;19912;-73
2023/08/23 05:25:13;;;;;;;;;;;;;;;;;;5305528;28;19908;-74
2023/08/23 05:27:44;;;;;;;;;;;;;;;;;;5305513;28;20398;-74
2023/08/23 05:30:15;;;;;;;;;;;;;;;;;;5306095;28;19994;-74
2023/08/23 05:32:46;;;;;;;;;;;;;;;;;;5304512;28;19916;-74
2023/08/23 05:35:17;;;;;;;;;;;;;;;;;;5305767;28;19919;-73
2023/08/23 05:37:48;;;;;;;;;;;;;;;;;;5304939;28;19908;-73
2023/08/23 05:40:19;;;;;;;;;;;;;;;;;;5305060;28;20282;-73
2023/08/23 05:42:50;;;;;;;;;;;;;;;;;;5305206;28;20004;-74
2023/08/23 05:45:26;;;;;;;;;;;;;;;;;;5305489;28;19912;-73
2023/08/23 05:47:58;;;;;;;;;;;;;;;;;;5304179;28;19969;-73
2023/08/23 05:50:29;;;;;;;;;;;;;;;;;;5304718;28;19935;-74
2023/08/23 05:53:01;;;;;;;;;;;;;;;;;;5305222;28;19908;-74
2023/08/23 05:55:32;;;;;;;;;;;;;;;;;;5303087;28;19912;-75
2023/08/23 05:58:03;;;;;;;;;;;;;;;;;;5305191;28;19914;-73
2023/08/23 06:00:34;;;;;;;;;;;;;;;;;;5303657;28;19914;-74
2023/08/23 06:03:05;;;;;;;;;;;;;;;;;;5305267;28;19908;-73
2023/08/23 06:05:36;;;;;;;;;;;;;;;;;;5304558;28;19908;-74
2023/08/23 06:08:08;;;;;;;;;;;;;;;;;;5304181;28;19915;-73
2023/08/23 06:10:39;;;;;;;;;;;;;;;;;;5304214;28;20353;-73
2023/08/23 06:13:10;;;;;;;;;;;;;;;;;;5305119;28;19995;-73
2023/08/23 06:15:41;;;;;;;;;;;;;;;;;;5303542;28;19908;-75
2023/08/23 06:18:12;;;;;;;;;;;;;;;;;;5304770;28;19983;-74
2023/08/23 06:20:45;;;;;;;;;;;;;;;;;;5303925;28;19904;-74
2023/08/23 06:23:16;;;;;;;;;;;;;;;;;;5303766;28;20007;-74
2023/08/23 06:25:47;;;;;;;;;;;;;;;;;;5304045;28;19990;-74
2023/08/23 06:28:18;;;;;;;;;;;;;;;;;;5303809;28;19978;-74
2023/08/23 06:30:50;;;;;;;;;;;;;;;;;;5303516;28;19920;-73
2023/08/23 06:33:21;;;;;;;;;;;;;;;;;;5312826;28;19918;-73
2023/08/23 06:35:52;;;;;;;;;;;;;;;;;;5324082;28;19960;-75
2023/08/23 06:38:23;;;;;;;;;;;;;;;;;;5325329;28;19955;-74
2023/08/23 06:40:55;;;;;;;;;;;;;;;;;;5325475;28;19935;-74
2023/08/23 06:43:26;;;;;;;;;;;;;;;;;;5324468;28;19908;-74
2023/08/23 06:45:57;;;;;;;;;;;;;;;;;;5323006;28;19943;-74
2023/08/23 06:48:28;;;;;;;;;;;;;;;;;;5324955;28;19914;-73
2023/08/23 06:50:59;;;;;;;;;;;;;;;;;;5323990;28;19922;-74
2023/08/23 06:53:33;;;;;;;;;;;;;;;;;;5324719;28;19983;-76
2023/08/23 06:56:04;;;;;;;;;;;;;;;;;;5325245;28;19961;-75
2023/08/23 06:58:35;;;;;;;;;;;;;;;;;;5322335;28;19911;-74
2023/08/23 07:01:09;;;;;;;;;;;;;;;;;;5323380;28;19908;-75
2023/08/23 07:03:40;;;;;;;;;;;;;;;;;;5323890;28;20247;-74
2023/08/23 07:06:11;;;;;;;;;;;;;;;;;;5324307;28;20006;-74
2023/08/23 07:08:42;;;;;;;;;;;;;;;;;;5324248;28;20332;-74
2023/08/23 07:11:13;;;;;;;;;;;;;;;;;;5324044;28;19968;-73
2023/08/23 07:13:44;;;;;;;;;;;;;;;;;;5324175;28;20002;-73
2023/08/23 07:16:15;;;;;;;;;;;;;;;;;;5324991;28;19944;-74
2023/08/23 07:18:47;;;;;;;;;;;;;;;;;;5323310;28;19976;-74
2023/08/23 07:21:18;;;;;;;;;;;;;;;;;;5324755;28;19920;-74
2023/08/23 07:23:49;;;;;;;;;;;;;;;;;;5324163;28;20386;-74
2023/08/23 07:26:20;;;;;;;;;;;;;;;;;;5324129;28;19915;-73
2023/08/23 07:28:51;;;;;;;;;;;;;;;;;;5324085;28;20385;-73
2023/08/23 07:31:22;;;;;;;;;;;;;;;;;;5324466;28;19927;-73
2023/08/23 07:33:53;;;;;;;;;;;;;;;;;;5323365;28;20320;-72
2023/08/23 07:36:24;;;;;;;;;;;;;;;;;;5324574;28;19912;-73
2023/08/23 07:38:56;;;;;;;;;;;;;;;;;;5323060;28;20490;-73
2023/08/23 07:41:27;;;;;;;;;;;;;;;;;;5324278;28;19908;-73
2023/08/23 07:43:58;;;;;;;;;;;;;;;;;;5323955;28;19925;-74
2023/08/23 07:46:29;;;;;;;;;;;;;;;;;;5323088;28;19908;-72
2023/08/23 07:49:00;;;;;;;;;;;;;;;;;;5324022;28;19941;-72
2023/08/23 07:51:31;;;;;;;;;;;;;;;;;;5323706;28;19916;-73
2023/08/23 07:54:03;;;;;;;;;;;;;;;;;;5323592;28;19916;-73
2023/08/23 07:56:34;;;;;;;;;;;;;;;;;;5323493;28;19920;-74
2023/08/23 07:59:05;;;;;;;;;;;;;;;;;;5324048;28;19915;-77
2023/08/23 08:01:36;;;;;;;;;;;;;;;;;;5322909;28;20282;-74
2023/08/23 08:04:07;;;;;;;;;;;;;;;;;;5324315;28;19907;-74
2023/08/23 08:06:39;;;;;;;;;;;;;;;;;;5323620;28;20286;-74
2023/08/23 08:09:10;;;;;;;;;;;;;;;;;;5322586;28;19908;-74
2023/08/23 08:11:41;;;;;;;;;;;;;;;;;;5321630;28;19916;-75
2023/08/23 08:14:12;;;;;;;;;;;;;;;;;;5321664;28;20358;-74
2023/08/23 08:16:43;;;;;;;;;;;;;;;;;;5322002;28;19919;-74
2023/08/23 08:19:15;;;;;;;;;;;;;;;;;;5325763;28;19908;-74
2023/08/23 08:21:46;;;;;;;;;;;;;;;;;;5325342;28;19908;-75
2023/08/23 08:24:17;;;;;;;;;;;;;;;;;;5327345;28;20018;-76
2023/08/23 08:26:48;;;;;;;;;;;;;;;;;;5327694;28;20048;-75
2023/08/23 08:29:19;;;;;;;;;;;;;;;;;;5327523;28;19908;-74
2023/08/23 08:31:50;;;;;;;;;;;;;;;;;;5327568;28;19920;-74
2023/08/23 08:34:22;;;;;;;;;;;;;;;;;;5328092;28;19912;-74
2023/08/23 08:36:53;;;;;;;;;;;;;;;;;;5326672;28;19912;-74
2023/08/23 08:39:24;;;;;;;;;;;;;;;;;;5327416;28;19927;-74
2023/08/23 08:41:55;;;;;;;;;;;;;;;;;;5327434;28;20378;-74
2023/08/23 08:44:27;;;;;;;;;;;;;;;;;;5327368;28;19907;-74
2023/08/23 08:46:58;;;;;;;;;;;;;;;;;;5327570;28;20346;-74
2023/08/23 08:49:29;;;;;;;;;;;;;;;;;;5308284;28;19908;-75
2023/08/23 08:52:00;;;;;;;;;;;;;;;;;;5327872;28;20278;-74
2023/08/23 08:54:31;;;;;;;;;;;;;;;;;;5327258;28;19947;-74
2023/08/23 08:57:02;;;;;;;;;;;;;;;;;;5326953;28;20006;-74
2023/08/23 08:59:33;;;;;;;;;;;;;;;;;;5326956;28;19995;-74
2023/08/23 09:02:04;;;;;;;;;;;;;;;;;;5327999;28;19908;-74
2023/08/23 09:04:36;;;;;;;;;;;;;;;;;;5326245;28;19912;-74
2023/08/23 09:07:07;;;;;;;;;;;;;;;;;;5327720;28;19908;-74
2023/08/23 09:09:38;;;;;;;;;;;;;;;;;;5327014;28;20350;-74
2023/08/23 09:12:09;;;;;;;;;;;;;;;;;;5326567;28;20028;-74
2023/08/23 09:14:40;;;;;;;;;;;;;;;;;;5326964;28;19912;-74
2023/08/23 09:17:11;;;;;;;;;;;;;;;;;;5326509;28;19908;-74
2023/08/23 09:19:42;;;;;;;;;;;;;;;;;;5326784;28;19987;-73
2023/08/23 09:22:13;;;;;;;;;;;;;;;;;;5327287;28;19907;-74
2023/08/23 09:24:45;;;;;;;;;;;;;;;;;;5325811;28;19999;-74
2023/08/23 09:27:16;;;;;;;;;;;;;;;;;;5327220;28;19995;-73
2023/08/23 09:29:47;;;;;;;;;;;;;;;;;;5325168;28;19935;-73
2023/08/23 09:32:18;;;;;;;;;;;;;;;;;;5326279;28;19916;-74
2023/08/23 09:34:50;;;;;;;;;;;;;;;;;;5326232;28;20113;-73
2023/08/23 09:37:21;;;;;;;;;;;;;;;;;;5327075;28;19915;-74
2023/08/23 09:39:52;;;;;;;;;;;;;;;;;;5325342;28;19924;-73
2023/08/23 09:42:23;;;;;;;;;;;;;;;;;;5326510;28;19911;-74
2023/08/23 09:44:54;;;;;;;;;;;;;;;;;;5326439;28;19992;-74
2023/08/23 09:47:25;;;;;;;;;;;;;;;;;;5325570;28;20033;-74
2023/08/23 09:49:58;;;;;;;;;;;;;;;;;;5326324;28;19998;-73
2023/08/23 09:52:31;;;;;;;;;;;;;;;;;;5325337;28;20384;-74
2023/08/23 09:55:03;;;;;;;;;;;;;;;;;;5326299;28;19911;-73
2023/08/23 09:57:34;;;;;;;;;;;;;;;;;;5325801;28;20350;-74
2023/08/23 10:00:06;;;;;;;;;;;;;;;;;;5325757;28;19908;-74
2023/08/23 10:02:37;;;;;;;;;;;;;;;;;;5326307;28;19915;-74
2023/08/23 10:05:11;;;;;;;;;;;;;;;;;;5326640;28;19914;-73
2023/08/23 10:07:42;;;;;;;;;;;;;;;;;;5324990;28;19916;-74
2023/08/23 10:10:14;;;;;;;;;;;;;;;;;;5326244;28;20430;-73
2023/08/23 10:12:45;;;;;;;;;;;;;;;;;;5325818;28;19920;-73
2023/08/23 10:15:16;;;;;;;;;;;;;;;;;;5325678;28;19943;-73
2023/08/23 10:17:47;;;;;;;;;;;;;;;;;;5325409;28;19908;-74
2023/08/23 10:20:18;;;;;;;;;;;;;;;;;;5326170;28;20359;-74
2023/08/23 10:22:50;;;;;;;;;;;;;;;;;;5324681;28;19970;-73
2023/08/23 10:25:22;;;;;;;;;;;;;;;;;;5326071;28;19908;-73
2023/08/23 10:27:53;;;;;;;;;;;;;;;;;;5324472;28;19915;-73
2023/08/23 10:30:24;;;;;;;;;;;;;;;;;;5325475;28;19914;-73
2023/08/23 10:32:55;;;;;;;;;;;;;;;;;;5325528;28;19912;-72
2023/08/23 10:35:26;;;;;;;;;;;;;;;;;;5324786;28;20359;-73
2023/08/23 10:37:57;;;;;;;;;;;;;;;;;;5325506;28;19955;-73
2023/08/23 10:40:29;;;;;;;;;;;;;;;;;;5325041;28;19986;-73
2023/08/23 10:43:00;;;;;;;;;;;;;;;;;;5324571;28;19929;-73
2023/08/23 10:45:31;;;;;;;;;;;;;;;;;;5324829;28;19965;-74
2023/08/23 10:48:02;;;;;;;;;;;;;;;;;;5325420;28;19907;-73
2023/08/23 10:50:33;;;;;;;;;;;;;;;;;;5324198;28;19933;-73
2023/08/23 10:53:04;;;;;;;;;;;;;;;;;;5325423;28;19914;-73
2023/08/23 10:55:35;;;;;;;;;;;;;;;;;;5324379;28;20334;-74
2023/08/23 10:58:06;;;;;;;;;;;;;;;;;;5325351;28;19968;-73
2023/08/23 11:00:37;;;;;;;;;;;;;;;;;;5324970;28;19969;-73
2023/08/23 11:03:09;;;;;;;;;;;;;;;;;;5324729;28;19908;-73
2023/08/23 11:05:40;;;;;;;;;;;;;;;;;;5324745;28;19912;-72
2023/08/23 11:08:11;;;;;;;;;;;;;;;;;;5324945;28;20422;-72
2023/08/23 11:10:42;;;;;;;;;;;;;;;;;;5323573;28;19920;-72
2023/08/23 11:13:13;;;;;;;;;;;;;;;;;;5325011;28;20026;-72
2023/08/23 11:15:44;;;;;;;;;;;;;;;;;;5324512;28;19904;-73
2023/08/23 11:18:15;;;;;;;;;;;;;;;;;;5324332;28;19907;-72
2023/08/23 11:20:47;;;;;;;;;;;;;;;;;;5324372;28;19910;-73
2023/08/23 11:23:18;;;;;;;;;;;;;;;;;;5324799;28;19912;-72
2023/08/23 11:25:49;;;;;;;;;;;;;;;;;;5323689;28;19915;-74
2023/08/23 11:28:20;;;;;;;;;;;;;;;;;;5324769;28;19961;-74
2023/08/23 11:30:51;;;;;;;;;;;;;;;;;;5323056;28;19915;-73
2023/08/23 11:33:22;;;;;;;;;;;;;;;;;;5324559;28;20495;-73
2023/08/23 11:35:54;;;;;;;;;;;;;;;;;;5323875;28;19912;-74
2023/08/23 11:38:25;;;;;;;;;;;;;;;;;;5323356;28;19926;-74
2023/08/23 11:40:56;;;;;;;;;;;;;;;;;;5324387;28;19998;-73
2023/08/23 11:43:28;;;;;;;;;;;;;;;;;;5324294;28;19918;-75
2023/08/23 11:45:59;;;;;;;;;;;;;;;;;;5323467;28;19915;-75
2023/08/23 11:48:31;;;;;;;;;;;;;;;;;;5323999;28;19912;-75
2023/08/23 11:51:02;;;;;;;;;;;;;;;;;;5324881;28;20405;-74
2023/08/23 11:53:33;;;;;;;;;;;;;;;;;;5322564;28;19908;-75
2023/08/23 11:56:04;;;;;;;;;;;;;;;;;;5324368;28;19931;-74
2023/08/23 11:58:35;;;;;;;;;;;;;;;;;;5323723;28;19908;-74
2023/08/23 12:01:06;;;;;;;;;;;;;;;;;;5323596;28;19951;-75
2023/08/23 12:03:37;;;;;;;;;;;;;;;;;;5323880;28;20282;-75
2023/08/23 12:06:08;;;;;;;;;;;;;;;;;;5323632;28;19908;-75
2023/08/23 12:08:39;;;;;;;;;;;;;;;;;;5323517;28;20393;-74
2023/08/23 12:11:11;;;;;;;;;;;;;;;;;;5324103;28;19916;-73
2023/08/23 12:13:42;;;;;;;;;;;;;;;;;;5322926;28;20015;-74
2023/08/23 12:16:13;;;;;;;;;;;;;;;;;;5324135;28;19919;-74
2023/08/23 12:18:46;;;;;;;;;;;;;;;;;;5323575;28;19915;-75
2023/08/23 12:21:17;;;;;;;;;;;;;;;;;;5323381;28;19908;-74
2023/08/23 12:23:48;;;;;;;;;;;;;;;;;;5323365;28;19908;-74
2023/08/23 12:26:19;;;;;;;;;;;;;;;;;;5324086;28;20282;-73
2023/08/23 12:28:50;;;;;;;;;;;;;;;;;;5322545;28;19911;-73
2023/08/23 12:31:22;;;;;;;;;;;;;;;;;;5324084;28;20271;-75
2023/08/23 12:33:53;;;;;;;;;;;;;;;;;;5323580;28;19908;-76
2023/08/23 12:36:25;;;;;;;;;;;;;;;;;;5322875;28;19908;-75
2023/08/23 12:38:58;;;;;;;;;;;;;;;;;;5304920;28;19919;-75
2023/08/23 12:41:29;;;;;;;;;;;;;;;;;;5322467;28;20342;-76
2023/08/23 12:44:01;;;;;;;;;;;;;;;;;;5323495;28;19908;-75
2023/08/23 12:46:32;;;;;;;;;;;;;;;;;;5322885;28;19912;-75
2023/08/23 12:49:07;;;;;;;;;;;;;;;;;;5323142;28;20285;-74
2023/08/23 12:51:38;;;;;;;;;;;;;;;;;;5323123;28;19937;-75
2023/08/23 12:54:09;;;;;;;;;;;;;;;;;;5323698;28;19908;-75
2023/08/23 12:56:40;;;;;;;;;;;;;;;;;;5322279;28;19912;-75
2023/08/23 12:59:12;;;;;;;;;;;;;;;;;;5323963;28;19912;-75
2023/08/23 13:01:43;;;;;;;;;;;;;;;;;;5323377;28;19965;-75
2023/08/23 13:04:14;;;;;;;;;;;;;;;;;;5324380;28;19912;-75
2023/08/23 13:06:45;;;;;;;;;;;;;;;;;;5326785;28;19914;-75
2023/08/23 13:09:16;;;;;;;;;;;;;;;;;;5326442;28;20022;-75
2023/08/23 13:11:47;;;;;;;;;;;;;;;;;;5326915;28;20396;-75
2023/08/23 13:14:18;;;;;;;;;;;;;;;;;;5327416;28;19908;-75
2023/08/23 13:16:49;;;;;;;;;;;;;;;;;;5325981;28;20267;-75
2023/08/23 13:19:20;;;;;;;;;;;;;;;;;;5327673;28;19908;-75
2023/08/23 13:21:52;;;;;;;;;;;;;;;;;;5326467;28;19915;-74
2023/08/23 13:24:23;;;;;;;;;;;;;;;;;;5326503;28;19912;-74
2023/08/23 13:26:54;;;;;;;;;;;;;;;;;;5327012;28;19908;-74
2023/08/23 13:29:26;;;;;;;;;;;;;;;;;;5319699;28;19915;-74
2023/08/23 13:31:57;;;;;;;;;;;;;;;;;;5325397;28;19915;-74
2023/08/23 13:34:28;;;;;;;;;;;;;;;;;;5326351;28;19999;-73
2023/08/23 13:36:59;;;;;;;;;;;;;;;;;;5326414;28;19951;-75
2023/08/23 13:39:30;;;;;;;;;;;;;;;;;;5323808;28;19924;-73
2023/08/23 13:42:01;;;;;;;;;;;;;;;;;;5326551;28;19908;-75
2023/08/23 13:44:32;;;;;;;;;;;;;;;;;;5324879;28;20290;-72
2023/08/23 13:47:03;;;;;;;;;;;;;;;;;;5326963;28;19915;-73
2023/08/23 13:49:35;;;;;;;;;;;;;;;;;;5326378;28;19904;-73
2023/08/23 13:52:06;;;;;;;;;;;;;;;;;;5325785;28;19923;-74
2023/08/23 13:54:37;;;;;;;;;;;;;;;;;;5325699;28;19992;-74
2023/08/23 13:57:08;;;;;;;;;;;;;;;;;;5325357;28;19911;-74
2023/08/23 13:59:39;;;;;;;;;;;;;;;;;;5324324;28;19915;-74
2023/08/23 14:02:10;;;;;;;;;;;;;;;;;;5326853;28;19908;-74
2023/08/23 14:04:41;;;;;;;;;;;;;;;;;;5321897;28;19911;-73
2023/08/23 14:07:14;;;;;;;;;;;;;;;;;;5325304;28;19912;-73
2023/08/23 14:09:45;;;;;;;;;;;;;;;;;;5324784;28;19915;-74
2023/08/23 14:12:17;;;;;;;;;;;;;;;;;;5326085;28;20354;-74
2023/08/23 14:14:48;;;;;;;;;;;;;;;;;;5324416;28;19915;-72
2023/08/23 14:17:19;;;;;;;;;;;;;;;;;;5325463;28;19908;-73
2023/08/23 14:19:50;;;;;;;;;;;;;;;;;;5324571;28;19996;-73
2023/08/23 14:22:21;;;;;;;;;;;;;;;;;;5325564;28;19908;-73
2023/08/23 14:24:52;;;;;;;;;;;;;;;;;;5323970;28;20266;-74
2023/08/23 14:27:23;;;;;;;;;;;;;;;;;;5324868;28;19923;-74
2023/08/23 14:29:54;;;;;;;;;;;;;;;;;;5325474;28;19915;-74
2023/08/23 14:32:28;;;;;;;;;;;;;;;;;;5325263;28;19916;-74
2023/08/23 14:34:59;;;;;;;;;;;;;;;;;;5325174;28;19915;-74
2023/08/23 14:37:30;;;;;;;;;;;;;;;;;;5325499;28;19911;-74
2023/08/23 14:40:01;;;;;;;;;;;;;;;;;;5325634;28;19919;-74
2023/08/23 14:42:32;;;;;;;;;;;;;;;;;;5324587;28;20345;-74
2023/08/23 14:45:03;;;;;;;;;;;;;;;;;;5325742;28;19912;-74
2023/08/23 14:47:34;;;;;;;;;;;;;;;;;;5325180;28;20362;-73
2023/08/23 14:50:05;;;;;;;;;;;;;;;;;;5324936;28;19907;-74
2023/08/23 14:52:36;;;;;;;;;;;;;;;;;;5324777;28;19922;-74
2023/08/23 14:55:08;;;;;;;;;;;;;;;;;;5324633;28;19908;-74
2023/08/23 14:57:40;;;;;;;;;;;;;;;;;;5324732;28;20296;-74
2023/08/23 15:00:11;;;;;;;;;;;;;;;;;;5325685;28;19977;-74
2023/08/23 15:02:43;;;;;;;;;;;;;;;;;;5324085;28;19920;-74
2023/08/23 15:05:14;;;;;;;;;;;;;;;;;;5325359;28;19939;-74
2023/08/23 15:07:45;;;;;;;;;;;;;;;;;;5324583;28;19908;-74
2023/08/23 15:10:16;;;;;;;;;;;;;;;;;;5324304;28;19911;-74
2023/08/23 15:12:47;;;;;;;;;;;;;;;;;;5324519;28;19916;-74
2023/08/23 15:15:18;;;;;;;;;;;;;;;;;;5324946;28;19925;-74
2023/08/23 15:17:49;;;;;;;;;;;;;;;;;;5323380;28;19912;-74
2023/08/23 15:20:20;;;;;;;;;;;;;;;;;;5324656;28;20351;-74
2023/08/23 15:22:51;;;;;;;;;;;;;;;;;;5323387;28;19912;-74
2023/08/23 15:25:22;;;;;;;;;;;;;;;;;;5324838;28;20276;-74
2023/08/23 15:27:55;;;;;;;;;;;;;;;;;;5323220;28;19908;-74
2023/08/23 15:30:26;;;;;;;;;;;;;;;;;;5323720;28;19908;-74
2023/08/23 15:32:57;;;;;;;;;;;;;;;;;;5324337;28;19956;-73
2023/08/23 15:35:28;;;;;;;;;;;;;;;;;;5324149;28;19960;-73
2023/08/23 15:38:00;;;;;;;;;;;;;;;;;;5323623;28;20294;-73
2023/08/23 15:40:31;;;;;;;;;;;;;;;;;;5324016;28;19915;-73
2023/08/23 15:43:02;;;;;;;;;;;;;;;;;;5324639;28;19943;-73
2023/08/23 15:45:33;;;;;;;;;;;;;;;;;;5322284;28;19915;-73
2023/08/23 15:48:04;;;;;;;;;;;;;;;;;;5324452;28;20320;-74
2023/08/23 15:50:35;;;;;;;;;;;;;;;;;;5323827;28;19925;-73
2023/08/23 15:53:06;;;;;;;;;;;;;;;;;;5323839;28;19908;-73
2023/08/23 15:55:37;;;;;;;;;;;;;;;;;;5324038;28;19961;-73
2023/08/23 15:58:09;;;;;;;;;;;;;;;;;;5323622;28;19912;-73
2023/08/23 16:00:40;;;;;;;;;;;;;;;;;;5323846;28;20240;-73
2023/08/23 16:03:11;;;;;;;;;;;;;;;;;;5324401;28;19908;-73
2023/08/23 16:05:42;;;;;;;;;;;;;;;;;;5323166;28;19915;-73
2023/08/23 16:08:13;;;;;;;;;;;;;;;;;;5321133;28;19953;-74
2023/08/23 16:10:44;;;;;;;;;;;;;;;;;;5323577;28;19908;-74
2023/08/23 16:13:15;;;;;;;;;;;;;;;;;;5323835;28;20011;-74
2023/08/23 16:15:46;;;;;;;;;;;;;;;;;;5323526;28;20378;-73
2023/08/23 16:18:17;;;;;;;;;;;;;;;;;;5323089;28;20031;-74
2023/08/23 16:20:49;;;;;;;;;;;;;;;;;;5322844;28;20004;-74
2023/08/23 16:23:20;;;;;;;;;;;;;;;;;;5324396;28;19915;-74
2023/08/23 16:25:52;;;;;;;;;;;;;;;;;;5323400;28;19916;-73
2023/08/23 16:28:23;;;;;;;;;;;;;;;;;;5323221;28;19943;-74
2023/08/23 16:30:54;;;;;;;;;;;;;;;;;;5323693;28;19962;-73
2023/08/23 16:33:26;;;;;;;;;;;;;;;;;;5323097;28;19919;-72
2023/08/23 16:35:57;;;;;;;;;;;;;;;;;;5323783;28;20032;-75
2023/08/23 16:38:28;;;;;;;;;;;;;;;;;;5324172;28;19926;-73
2023/08/23 16:40:59;;;;;;;;;;;;;;;;;;5327483;28;19998;-73
2023/08/23 16:43:30;;;;;;;;;;;;;;;;;;5328004;28;20354;-73
2023/08/23 16:46:02;;;;;;;;;;;;;;;;;;5328201;28;19908;-73
2023/08/23 16:48:33;;;;;;;;;;;;;;;;;;5326752;28;19912;-74
2023/08/23 16:51:05;;;;;;;;;;;;;;;;;;5328027;28;19965;-74
2023/08/23 16:53:36;;;;;;;;;;;;;;;;;;5327568;28;20273;-73
2023/08/23 16:56:07;;;;;;;;;;;;;;;;;;5327302;28;20002;-73
2023/08/23 16:58:38;;;;;;;;;;;;;;;;;;5327360;28;19961;-72
2023/08/23 17:01:09;;;;;;;;;;;;;;;;;;5327814;28;20350;-72
2023/08/23 17:03:40;;;;;;;;;;;;;;;;;;5326786;28;19911;-72
2023/08/23 17:06:11;;;;;;;;;;;;;;;;;;5327834;28;19960;-72
2023/08/23 17:08:43;;;;;;;;;;;;;;;;;;5326558;28;20331;-73
2023/08/23 17:11:14;;;;;;;;;;;;;;;;;;5327599;28;19920;-73